Startpagina
METAR-TAF:

METAR-TAF

Vliegvelden :

Aéroport de Lille-Lesquin

Rijsel, Frankrijk

breedte: 50-34N, lengte: 003-06E, hoogte: 48 m

Actueel weer

Dit bericht is 29 minuten geleden gemaakt, om 01:00 UTC
Wind 9 kt uit het noordoosten
Temperatuur 3°C
Vochtigheid 75%
Druk 1026 hPa
Zicht 10 km of meer
geen wolken onder 1500 m en geen cumulonimbus

METAR: LFQQ 180100Z AUTO 05009KT CAVOK 03/M01 Q1026 NOSIG

Tijdstip: 02:29 (01:29 UTC)

Verwachting

Dit bericht is 2 uur en het 29 minuten geleden gemaakt, om 23:00 UTC
Verwachting geldig van 18 om 00 UTC tot 19 om 06 UTC
Wind 10 kt uit het oostnoordoosten
Zicht 10 km of meer
geen wolken onder 1500 m en geen cumulonimbus
Kans 30% :
Tijdelijke
van 19 om 04 UTC tot 19 om 06 UTC
Geheel bewolkt op 700 ft

TAF: LFQQ 172300Z 1800/1906 06010KT CAVOK PROB30 TEMPO 1904/1906 OVC007

Waarnemingen en weersverwachtingen van meer dan 4000 vliegvelden (METAR en TAF).

De beschikbare stations zijn de gele en rode punten op de kaart.

Ga met uw muis naar het station om de naam te zien.

Klik dan om waarnemingen en weersverwachtingen te zien.

kaart wijzigen: klik op de groene knoppen met een zwart kruis om in te zoomen, op de groene knop met een streepje om uit te zoomen of op de groene pijlen voor aangrenzende kaarten.


METAR-TAF: